Time;durP1;ratioP1;P1;durP2;ratioP2;P2;SDS_P1;SDS_P2;PMS_P1;PMS_P2;Temp;Humidity;BMP_temperature;BMP_pressure;BME280_temperature;BME280_humidity;BME280_pressure;Samples;Min_cycle;Max_cycle;Signal;HPM_P1;HPM_P2
2021/12/28 00:00:19;;;;;;;14.85;2.88;;;;;;;;;;5036057;28;20111;-26
2021/12/28 00:02:47;;;;;;;13.18;2.63;;;;;;;;;;5036312;28;20111;-26
2021/12/28 00:05:14;;;;;;;16.15;3.28;;;;;;;;;;5037124;28;20055;-26
2021/12/28 00:07:40;;;;;;;12.75;2.97;;;;;;;;;;5036418;28;20045;-26
2021/12/28 00:10:07;;;;;;;12.93;2.85;;;;;;;;;;5036984;28;20033;-26
2021/12/28 00:12:36;;;;;;;13.23;2.60;;;;;;;;;;5036391;28;20021;-26
2021/12/28 00:15:19;;;;;;;14.85;2.88;;;;;;;;;;5037091;28;20022;-26
2021/12/28 00:18:04;;;;;;;19.55;2.70;;;;;;;;;;5037437;28;20437;-26
2021/12/28 00:20:32;;;;;;;12.35;2.10;;;;;;;;;;5036341;28;20053;-26
2021/12/28 00:22:58;;;;;;;14.25;2.75;;;;;;;;;;5036191;28;20095;-26
2021/12/28 00:25:25;;;;;;;18.65;3.28;;;;;;;;;;5036180;28;20453;-26
2021/12/28 00:27:51;;;;;;;11.48;2.13;;;;;;;;;;5035993;28;20033;-26
2021/12/28 00:30:17;;;;;;;6.25;2.00;;;;;;;;;;5036373;28;20340;-26
2021/12/28 00:32:46;;;;;;;12.40;2.50;;;;;;;;;;5036210;28;20108;-26
2021/12/28 00:35:12;;;;;;;13.30;2.20;;;;;;;;;;5036230;28;20337;-26
2021/12/28 00:37:39;;;;;;;14.27;2.42;;;;;;;;;;5036700;28;20049;-26
2021/12/28 00:40:05;;;;;;;8.70;1.98;;;;;;;;;;5035844;28;20029;-26
2021/12/28 00:42:33;;;;;;;12.65;2.60;;;;;;;;;;5035998;28;20025;-26
2021/12/28 00:44:59;;;;;;;15.88;3.35;;;;;;;;;;5036040;28;20041;-26
2021/12/28 00:47:25;;;;;;;14.32;2.22;;;;;;;;;;5035730;28;20018;-26
2021/12/28 00:49:51;;;;;;;13.13;1.80;;;;;;;;;;5035749;28;20021;-26
2021/12/28 00:52:17;;;;;;;12.00;3.22;;;;;;;;;;5035870;28;20022;-26
2021/12/28 00:54:43;;;;;;;17.75;2.67;;;;;;;;;;5035621;28;20491;-26
2021/12/28 00:57:10;;;;;;;13.20;2.47;;;;;;;;;;5035834;28;20068;-26
2021/12/28 00:59:36;;;;;;;15.13;3.20;;;;;;;;;;5035762;28;20048;-26
2021/12/28 01:02:02;;;;;;;17.38;2.30;;;;;;;;;;5035396;28;20034;-26
2021/12/28 01:04:28;;;;;;;10.98;2.28;;;;;;;;;;5035309;28;20045;-26
2021/12/28 01:06:55;;;;;;;18.35;3.53;;;;;;;;;;5035638;28;20029;-26
2021/12/28 01:09:23;;;;;;;19.75;1.98;;;;;;;;;;5035762;28;20040;-26
2021/12/28 01:11:49;;;;;;;9.55;2.42;;;;;;;;;;5034855;28;20036;-26
2021/12/28 01:14:15;;;;;;;7.88;1.88;;;;;;;;;;5035512;28;20100;-26
2021/12/28 01:16:41;;;;;;;14.93;2.72;;;;;;;;;;5035163;28;20462;-26
2021/12/28 01:19:08;;;;;;;13.70;2.50;;;;;;;;;;5035156;28;20035;-26
2021/12/28 01:21:34;;;;;;;19.65;3.47;;;;;;;;;;5035052;28;20033;-26
2021/12/28 01:24:00;;;;;;;11.15;3.00;;;;;;;;;;5034902;28;20035;-26
2021/12/28 01:26:27;;;;;;;15.68;2.08;;;;;;;;;;5017617;28;20104;-26
2021/12/28 01:28:53;;;;;;;10.77;2.75;;;;;;;;;;5035191;28;20026;-26
2021/12/28 01:31:19;;;;;;;17.48;4.72;;;;;;;;;;5034984;28;20033;-26
2021/12/28 01:33:45;;;;;;;15.77;2.25;;;;;;;;;;5034864;28;20025;-26
2021/12/28 01:36:11;;;;;;;11.30;2.13;;;;;;;;;;5035105;28;20036;-26
2021/12/28 01:38:38;;;;;;;14.93;2.40;;;;;;;;;;5034813;28;20109;-26
2021/12/28 01:41:09;;;;;;;18.50;2.55;;;;;;;;;;5034824;28;20029;-26
2021/12/28 01:43:38;;;;;;;11.60;1.88;;;;;;;;;;5035010;28;20052;-26
2021/12/28 01:46:05;;;;;;;7.63;1.70;;;;;;;;;;5034669;28;20029;-26
2021/12/28 01:48:33;;;;;;;7.38;2.33;;;;;;;;;;5034546;28;20116;-26
2021/12/28 01:51:01;;;;;;;7.95;2.55;;;;;;;;;;5034660;28;20037;-26
2021/12/28 01:53:28;;;;;;;9.85;2.63;;;;;;;;;;5034569;28;20033;-26
2021/12/28 01:55:56;;;;;;;10.77;1.80;;;;;;;;;;5034546;28;20026;-26
2021/12/28 01:58:22;;;;;;;9.55;1.88;;;;;;;;;;5034551;28;20061;-26
2021/12/28 02:00:49;;;;;;;10.40;1.55;;;;;;;;;;5034542;28;20041;-26
2021/12/28 02:03:16;;;;;;;10.45;2.25;;;;;;;;;;5034653;28;20049;-26
2021/12/28 02:05:43;;;;;;;16.63;3.70;;;;;;;;;;5034508;28;20034;-26
2021/12/28 02:08:10;;;;;;;14.82;4.18;;;;;;;;;;5034638;28;20368;-26
2021/12/28 02:10:36;;;;;;;11.07;2.38;;;;;;;;;;5034384;28;20029;-26
2021/12/28 02:13:05;;;;;;;18.25;3.47;;;;;;;;;;5034402;28;20056;-26
2021/12/28 02:15:31;;;;;;;14.30;1.92;;;;;;;;;;5034627;28;20036;-26
2021/12/28 02:17:57;;;;;;;10.48;2.33;;;;;;;;;;5034400;28;20453;-26
2021/12/28 02:20:23;;;;;;;15.18;2.75;;;;;;;;;;5034408;28;20055;-26
2021/12/28 02:22:50;;;;;;;17.50;2.03;;;;;;;;;;5034527;28;20388;-26
2021/12/28 02:25:17;;;;;;;10.65;2.40;;;;;;;;;;5037553;28;20030;-26
2021/12/28 02:27:43;;;;;;;8.70;1.60;;;;;;;;;;5038299;28;20030;-26
2021/12/28 02:30:12;;;;;;;14.40;2.05;;;;;;;;;;5038571;28;20037;-26
2021/12/28 02:32:39;;;;;;;11.23;2.08;;;;;;;;;;5038251;28;20121;-26
2021/12/28 02:35:09;;;;;;;7.30;1.75;;;;;;;;;;5038781;28;20108;-26
2021/12/28 02:37:35;;;;;;;7.03;2.43;;;;;;;;;;5038841;28;20096;-26
2021/12/28 02:40:01;;;;;;;18.35;3.97;;;;;;;;;;5038393;28;20088;-26
2021/12/28 02:42:28;;;;;;;8.13;1.40;;;;;;;;;;5038193;28;20113;-26
2021/12/28 02:45:05;;;;;;;10.75;2.67;;;;;;;;;;5038051;28;20087;-26
2021/12/28 02:47:32;;;;;;;7.40;2.95;;;;;;;;;;5038226;28;20363;-26
2021/12/28 02:49:58;;;;;;;14.52;2.67;;;;;;;;;;5038242;28;20041;-26
2021/12/28 02:52:24;;;;;;;12.63;1.73;;;;;;;;;;5037880;28;20092;-26
2021/12/28 02:54:50;;;;;;;16.35;1.73;;;;;;;;;;5038170;28;20026;-26
2021/12/28 02:57:17;;;;;;;10.23;2.08;;;;;;;;;;5038142;28;20096;-26
2021/12/28 02:59:47;;;;;;;7.65;1.92;;;;;;;;;;5037868;28;20464;-26
2021/12/28 03:02:14;;;;;;;13.57;2.00;;;;;;;;;;5037725;28;20025;-26
2021/12/28 03:04:40;;;;;;;6.15;1.70;;;;;;;;;;5021115;28;20056;-26
2021/12/28 03:07:07;;;;;;;13.65;2.50;;;;;;;;;;5038009;28;20030;-26
2021/12/28 03:09:33;;;;;;;8.65;1.98;;;;;;;;;;5037544;28;20468;-26
2021/12/28 03:11:59;;;;;;;13.23;1.90;;;;;;;;;;5038092;28;20040;-26
2021/12/28 03:14:25;;;;;;;8.98;3.17;;;;;;;;;;5037793;28;20098;-26
2021/12/28 03:16:51;;;;;;;11.27;2.08;;;;;;;;;;5037547;28;20025;-26
2021/12/28 03:19:18;;;;;;;9.25;2.40;;;;;;;;;;5037705;28;20416;-26
2021/12/28 03:21:46;;;;;;;6.38;2.00;;;;;;;;;;5037264;28;20029;-26
2021/12/28 03:24:13;;;;;;;11.48;2.00;;;;;;;;;;5037589;28;20048;-26
2021/12/28 03:26:39;;;;;;;6.43;2.95;;;;;;;;;;5037568;28;20048;-26
2021/12/28 03:29:06;;;;;;;10.43;2.05;;;;;;;;;;5037427;28;20054;-26
2021/12/28 03:31:32;;;;;;;5.03;1.63;;;;;;;;;;5037526;28;20062;-26
2021/12/28 03:33:58;;;;;;;6.60;1.17;;;;;;;;;;5037406;28;20356;-26
2021/12/28 03:36:27;;;;;;;9.05;1.85;;;;;;;;;;5036918;28;20132;-26
2021/12/28 03:38:54;;;;;;;8.38;1.73;;;;;;;;;;5037353;28;20025;-26
2021/12/28 03:41:21;;;;;;;7.28;2.00;;;;;;;;;;5037298;28;20444;-26
2021/12/28 03:43:49;;;;;;;6.30;1.70;;;;;;;;;;5036943;28;20029;-26
2021/12/28 03:46:15;;;;;;;8.80;3.50;;;;;;;;;;5036946;28;20021;-26
2021/12/28 03:48:42;;;;;;;3.72;1.08;;;;;;;;;;5036834;28;20029;-26
2021/12/28 03:51:08;;;;;;;10.38;1.90;;;;;;;;;;5037149;28;20069;-26
2021/12/28 03:53:35;;;;;;;4.72;1.85;;;;;;;;;;5036858;28;20026;-26
2021/12/28 03:56:02;;;;;;;10.18;1.15;;;;;;;;;;5036768;28;20048;-26
2021/12/28 03:58:28;;;;;;;6.80;1.80;;;;;;;;;;5036716;28;20103;-26
2021/12/28 04:00:54;;;;;;;7.75;1.90;;;;;;;;;;5037188;28;20029;-26
2021/12/28 04:03:20;;;;;;;11.90;4.00;;;;;;;;;;5036818;28;20391;-26
2021/12/28 04:05:46;;;;;;;4.82;1.83;;;;;;;;;;5036621;28;20035;-26
2021/12/28 04:08:15;;;;;;;8.93;1.73;;;;;;;;;;5037004;28;20108;-26
2021/12/28 04:11:13;;;;;;;4.72;1.90;;;;;;;;;;5036463;28;20029;-26
2021/12/28 04:13:39;;;;;;;8.63;2.03;;;;;;;;;;5036483;28;20021;-26
2021/12/28 04:16:05;;;;;;;7.40;1.58;;;;;;;;;;5036375;28;20033;-26
2021/12/28 04:18:31;;;;;;;14.25;2.05;;;;;;;;;;5036313;28;20021;-26
2021/12/28 04:20:58;;;;;;;5.78;1.80;;;;;;;;;;5036273;28;20424;-26
2021/12/28 04:23:24;;;;;;;5.13;1.92;;;;;;;;;;5036217;28;20409;-26
2021/12/28 04:25:50;;;;;;;13.80;4.13;;;;;;;;;;5036246;28;20080;-26
2021/12/28 04:28:16;;;;;;;7.05;1.83;;;;;;;;;;5036085;28;20025;-26
2021/12/28 04:30:42;;;;;;;5.82;1.75;;;;;;;;;;5036159;28;20456;-26
2021/12/28 04:33:08;;;;;;;8.30;1.30;;;;;;;;;;5036225;28;20372;-26
2021/12/28 04:35:35;;;;;;;8.73;1.67;;;;;;;;;;5036075;28;20467;-26
2021/12/28 04:38:01;;;;;;;9.18;1.42;;;;;;;;;;5036021;28;20034;-26
2021/12/28 04:40:27;;;;;;;8.25;1.58;;;;;;;;;;5036206;28;20360;-26
2021/12/28 04:42:53;;;;;;;6.18;1.92;;;;;;;;;;5036049;28;20080;-26
2021/12/28 04:45:20;;;;;;;6.32;2.30;;;;;;;;;;5036004;28;20033;-26
2021/12/28 04:47:46;;;;;;;6.50;1.65;;;;;;;;;;5035285;28;20116;-26
2021/12/28 04:50:12;;;;;;;8.95;1.55;;;;;;;;;;5035620;28;20036;-26
2021/12/28 04:52:40;;;;;;;3.25;2.00;;;;;;;;;;5035478;28;20083;-26
2021/12/28 04:55:09;;;;;;;8.35;2.05;;;;;;;;;;5035616;28;20040;-26
2021/12/28 04:57:36;;;;;;;4.90;1.25;;;;;;;;;;5018426;28;20468;-26
2021/12/28 05:00:03;;;;;;;5.55;1.13;;;;;;;;;;5035724;28;20033;-26
2021/12/28 05:02:29;;;;;;;8.45;1.40;;;;;;;;;;5036043;28;20045;-26
2021/12/28 05:04:55;;;;;;;4.93;1.27;;;;;;;;;;5035461;28;20337;-26
2021/12/28 05:07:21;;;;;;;6.97;1.20;;;;;;;;;;5035296;28;20026;-26
2021/12/28 05:09:47;;;;;;;8.55;1.77;;;;;;;;;;5035028;28;20036;-26
2021/12/28 05:12:14;;;;;;;10.48;1.95;;;;;;;;;;5035410;28;20072;-26
2021/12/28 05:14:42;;;;;;;23.27;3.10;;;;;;;;;;5035696;28;20091;-26
2021/12/28 05:17:08;;;;;;;8.35;2.20;;;;;;;;;;5035372;28;20021;-26
2021/12/28 05:19:34;;;;;;;7.63;1.85;;;;;;;;;;5035314;28;20029;-26
2021/12/28 05:22:01;;;;;;;9.55;2.08;;;;;;;;;;5035459;28;20444;-26
2021/12/28 05:24:27;;;;;;;5.82;1.60;;;;;;;;;;5035305;28;20349;-26
2021/12/28 05:26:53;;;;;;;8.38;2.03;;;;;;;;;;5035605;28;20026;-27
2021/12/28 05:29:20;;;;;;;17.17;4.63;;;;;;;;;;5035339;28;20037;-27
2021/12/28 05:31:46;;;;;;;6.75;1.58;;;;;;;;;;5034793;28;20035;-26
2021/12/28 05:34:12;;;;;;;6.68;1.80;;;;;;;;;;5034701;28;20028;-26
2021/12/28 05:36:38;;;;;;;9.88;3.08;;;;;;;;;;5034626;28;20396;-26
2021/12/28 05:39:05;;;;;;;9.90;1.67;;;;;;;;;;5034665;28;20029;-26
2021/12/28 05:41:31;;;;;;;9.65;2.92;;;;;;;;;;5034686;28;20029;-26
2021/12/28 05:43:58;;;;;;;6.90;1.95;;;;;;;;;;5035080;28;20029;-26
2021/12/28 05:46:24;;;;;;;13.65;3.72;;;;;;;;;;5034477;28;20033;-26
2021/12/28 05:48:50;;;;;;;8.13;2.47;;;;;;;;;;5034496;28;20025;-26
2021/12/28 05:51:16;;;;;;;6.70;2.42;;;;;;;;;;5034603;28;20071;-26
2021/12/28 05:53:42;;;;;;;18.65;2.35;;;;;;;;;;5034368;28;20043;-26
2021/12/28 05:56:08;;;;;;;7.93;2.03;;;;;;;;;;5034668;28;20030;-26
2021/12/28 05:58:35;;;;;;;31.85;3.38;;;;;;;;;;5033769;28;20033;-27
2021/12/28 06:01:01;;;;;;;10.80;2.00;;;;;;;;;;5034519;28;20032;-26
2021/12/28 06:03:27;;;;;;;20.60;2.42;;;;;;;;;;5034265;28;20119;-26
2021/12/28 06:05:53;;;;;;;9.93;1.88;;;;;;;;;;5034461;28;20037;-27
2021/12/28 06:08:20;;;;;;;17.42;2.92;;;;;;;;;;5034277;28;20376;-27
2021/12/28 06:10:46;;;;;;;9.00;2.08;;;;;;;;;;5034723;28;20036;-26
2021/12/28 06:13:12;;;;;;;12.25;1.90;;;;;;;;;;5034110;28;20021;-27
2021/12/28 06:15:38;;;;;;;13.68;4.72;;;;;;;;;;5034478;28;20445;-26
2021/12/28 06:18:04;;;;;;;14.23;2.03;;;;;;;;;;5034288;28;20448;-27
2021/12/28 06:20:30;;;;;;;12.02;2.63;;;;;;;;;;5016923;28;20033;-27
2021/12/28 06:22:57;;;;;;;10.73;2.75;;;;;;;;;;5034203;28;20033;-26
2021/12/28 06:25:23;;;;;;;16.83;2.25;;;;;;;;;;5034476;28;20032;-27
2021/12/28 06:27:49;;;;;;;10.60;2.47;;;;;;;;;;5034008;28;20034;-27
2021/12/28 06:30:16;;;;;;;11.35;2.47;;;;;;;;;;5034300;28;20099;-27
2021/12/28 06:32:42;;;;;;;19.90;2.88;;;;;;;;;;5034321;28;20036;-27
2021/12/28 06:35:09;;;;;;;22.17;2.92;;;;;;;;;;5034083;28;20356;-27
2021/12/28 06:37:35;;;;;;;17.20;2.47;;;;;;;;;;5034049;28;20035;-25
2021/12/28 06:40:01;;;;;;;13.18;2.13;;;;;;;;;;5034308;28;20371;-25
2021/12/28 06:42:28;;;;;;;18.13;2.97;;;;;;;;;;5033994;28;20022;-25
2021/12/28 06:44:54;;;;;;;34.20;4.63;;;;;;;;;;5034010;28;20334;-27
2021/12/28 06:47:20;;;;;;;31.83;2.83;;;;;;;;;;5034037;28;20021;-26
2021/12/28 06:49:46;;;;;;;20.52;2.55;;;;;;;;;;5034170;28;20436;-26
2021/12/28 06:52:13;;;;;;;39.15;3.97;;;;;;;;;;5033780;28;20033;-26
2021/12/28 06:54:40;;;;;;;35.30;4.00;;;;;;;;;;5033789;28;20029;-26
2021/12/28 06:57:07;;;;;;;23.98;4.00;;;;;;;;;;5034103;28;20034;-27
2021/12/28 06:59:37;;;;;;;22.42;2.95;;;;;;;;;;5034029;28;20052;-27
2021/12/28 07:02:04;;;;;;;24.45;3.53;;;;;;;;;;5033855;28;20033;-27
2021/12/28 07:04:31;;;;;;;17.88;2.35;;;;;;;;;;5033606;28;20053;-27
2021/12/28 07:06:57;;;;;;;25.27;3.60;;;;;;;;;;5033785;28;20025;-26
2021/12/28 07:09:23;;;;;;;27.95;3.67;;;;;;;;;;5034049;28;20040;-26
2021/12/28 07:11:49;;;;;;;21.45;3.70;;;;;;;;;;5037381;28;20028;-26
2021/12/28 07:14:15;;;;;;;35.05;2.90;;;;;;;;;;5037475;28;20033;-26
2021/12/28 07:16:41;;;;;;;16.33;2.97;;;;;;;;;;5037347;28;20068;-26
2021/12/28 07:19:10;;;;;;;25.40;4.55;;;;;;;;;;5037583;28;20068;-26
2021/12/28 07:21:40;;;;;;;18.90;3.97;;;;;;;;;;5037155;28;20032;-26
2021/12/28 07:24:07;;;;;;;17.88;4.60;;;;;;;;;;5037087;28;20032;-26
2021/12/28 07:26:35;;;;;;;23.83;3.10;;;;;;;;;;5037056;28;20037;-27
2021/12/28 07:29:01;;;;;;;24.42;3.10;;;;;;;;;;5037220;28;20029;-27
2021/12/28 07:31:27;;;;;;;17.42;2.22;;;;;;;;;;5036945;28;20033;-26
2021/12/28 07:33:54;;;;;;;31.40;3.67;;;;;;;;;;5036813;28;20044;-26
2021/12/28 07:36:20;;;;;;;19.67;2.47;;;;;;;;;;5036717;28;20029;-26
2021/12/28 07:38:46;;;;;;;27.27;3.33;;;;;;;;;;5036732;28;20037;-26
2021/12/28 07:41:13;;;;;;;23.27;3.67;;;;;;;;;;5036657;28;20038;-27
2021/12/28 07:43:39;;;;;;;19.88;3.33;;;;;;;;;;5036690;28;20033;-28
2021/12/28 07:46:05;;;;;;;17.23;2.63;;;;;;;;;;5036676;28;20402;-27
2021/12/28 07:48:31;;;;;;;18.85;3.20;;;;;;;;;;5036436;28;20052;-27
2021/12/28 07:50:58;;;;;;;24.83;3.30;;;;;;;;;;5036791;28;20070;-27
2021/12/28 07:53:24;;;;;;;33.20;3.45;;;;;;;;;;5036426;28;20029;-26
2021/12/28 07:55:50;;;;;;;18.65;2.97;;;;;;;;;;5036972;28;20025;-27
2021/12/28 07:58:17;;;;;;;20.05;2.50;;;;;;;;;;5036882;28;20091;-27
2021/12/28 08:00:43;;;;;;;19.17;2.45;;;;;;;;;;5036524;28;20036;-26
2021/12/28 08:03:09;;;;;;;16.52;3.60;;;;;;;;;;5036016;28;20096;-27
2021/12/28 08:05:36;;;;;;;24.15;3.95;;;;;;;;;;5036472;28;20346;-27
2021/12/28 08:08:02;;;;;;;16.33;3.30;;;;;;;;;;5036200;28;20025;-27
2021/12/28 08:10:29;;;;;;;13.93;2.75;;;;;;;;;;5036318;28;20316;-27
2021/12/28 08:12:56;;;;;;;21.65;3.05;;;;;;;;;;5036326;28;20061;-27
2021/12/28 08:15:24;;;;;;;29.17;3.40;;;;;;;;;;5036172;28;20367;-27
2021/12/28 08:17:51;;;;;;;16.67;2.45;;;;;;;;;;5036389;28;20029;-27
2021/12/28 08:20:18;;;;;;;19.67;2.63;;;;;;;;;;5036006;28;20026;-26
2021/12/28 08:22:45;;;;;;;17.90;2.50;;;;;;;;;;5035162;28;20028;-26
2021/12/28 08:25:12;;;;;;;20.15;3.03;;;;;;;;;;5035973;28;20100;-26
2021/12/28 08:27:39;;;;;;;17.55;2.95;;;;;;;;;;5035874;28;20026;-27
2021/12/28 08:30:07;;;;;;;31.33;3.42;;;;;;;;;;5035952;28;20514;-27
2021/12/28 08:32:33;;;;;;;20.33;3.03;;;;;;;;;;5035607;28;20029;-27
2021/12/28 08:34:59;;;;;;;24.23;4.45;;;;;;;;;;5035772;28;20116;-27
2021/12/28 08:37:26;;;;;;;29.13;3.92;;;;;;;;;;5036008;28;20350;-27
2021/12/28 08:39:53;;;;;;;18.42;3.30;;;;;;;;;;5035748;28;20460;-27
2021/12/28 08:42:21;;;;;;;36.38;3.72;;;;;;;;;;5035593;28;20321;-25
2021/12/28 08:44:47;;;;;;;26.33;3.88;;;;;;;;;;5035755;28;20037;-25
2021/12/28 08:47:14;;;;;;;24.90;2.38;;;;;;;;;;5035491;28;20025;-25
2021/12/28 08:49:40;;;;;;;24.35;4.82;;;;;;;;;;5035452;28;20033;-27
2021/12/28 08:52:06;;;;;;;24.75;4.80;;;;;;;;;;5035359;28;20021;-27
2021/12/28 08:54:33;;;;;;;25.02;3.38;;;;;;;;;;5035789;28;20029;-26
2021/12/28 08:56:59;;;;;;;27.60;4.53;;;;;;;;;;5035505;28;20029;-27
2021/12/28 08:59:26;;;;;;;19.13;2.88;;;;;;;;;;5035618;28;20038;-27
2021/12/28 09:01:54;;;;;;;18.80;2.60;;;;;;;;;;5035133;28;20025;-27
2021/12/28 09:04:20;;;;;;;22.73;3.22;;;;;;;;;;5035033;28;20045;-27
2021/12/28 09:06:47;;;;;;;28.73;4.30;;;;;;;;;;5035534;28;20033;-26
2021/12/28 09:09:13;;;;;;;29.48;3.95;;;;;;;;;;5035065;28;20033;-27
2021/12/28 09:11:40;;;;;;;42.10;3.35;;;;;;;;;;5035137;28;20068;-26
2021/12/28 09:14:06;;;;;;;41.97;3.83;;;;;;;;;;5034957;28;20025;-26
2021/12/28 09:16:32;;;;;;;52.22;5.72;;;;;;;;;;5035324;28;20017;-27
2021/12/28 09:18:59;;;;;;;46.78;6.43;;;;;;;;;;5035226;28;20410;-27
2021/12/28 09:21:25;;;;;;;45.03;9.27;;;;;;;;;;5035715;28;20357;-26
2021/12/28 09:23:51;;;;;;;60.30;7.30;;;;;;;;;;5035157;28;20067;-27
2021/12/28 09:26:17;;;;;;;32.67;4.07;;;;;;;;;;5035269;28;20029;-27
2021/12/28 09:28:44;;;;;;;18.77;4.22;;;;;;;;;;5034803;28;20062;-27
2021/12/28 09:31:10;;;;;;;17.48;3.28;;;;;;;;;;5035298;28;20045;-26
2021/12/28 09:33:36;;;;;;;44.85;3.65;;;;;;;;;;5034455;28;20353;-26
2021/12/28 09:36:05;;;;;;;25.50;3.40;;;;;;;;;;5034675;28;20096;-27
2021/12/28 09:38:31;;;;;;;27.30;2.75;;;;;;;;;;5034792;28;20111;-27
2021/12/28 09:40:57;;;;;;;36.28;3.20;;;;;;;;;;5034583;28;20032;-27
2021/12/28 09:43:24;;;;;;;23.95;3.65;;;;;;;;;;5034460;28;20082;-27
2021/12/28 09:45:50;;;;;;;31.38;4.47;;;;;;;;;;5035014;28;20044;-27
2021/12/28 09:48:16;;;;;;;24.45;3.97;;;;;;;;;;5034492;28;20030;-26
2021/12/28 09:50:42;;;;;;;33.78;7.05;;;;;;;;;;5035107;28;20018;-27
2021/12/28 09:53:10;;;;;;;34.47;4.75;;;;;;;;;;5034715;28;20033;-26
2021/12/28 09:55:36;;;;;;;35.50;3.10;;;;;;;;;;5034580;28;20032;-26
2021/12/28 09:58:03;;;;;;;51.65;6.20;;;;;;;;;;5034700;28;20117;-27
2021/12/28 10:00:29;;;;;;;27.10;3.80;;;;;;;;;;5034793;28;20033;-26
2021/12/28 10:02:56;;;;;;;34.30;5.85;;;;;;;;;;5034357;28;20041;-27
2021/12/28 10:05:23;;;;;;;46.60;6.22;;;;;;;;;;5034315;28;20053;-27
2021/12/28 10:07:56;;;;;;;49.75;7.80;;;;;;;;;;5034336;28;20061;-27
2021/12/28 10:10:24;;;;;;;35.72;4.85;;;;;;;;;;5034738;28;20095;-27
2021/12/28 10:12:52;;;;;;;41.83;4.88;;;;;;;;;;5034886;28;20037;-27
2021/12/28 10:15:21;;;;;;;46.67;4.57;;;;;;;;;;5034324;28;20056;-27
2021/12/28 10:17:51;;;;;;;38.92;5.53;;;;;;;;;;5034556;28;20391;-26
2021/12/28 10:20:28;;;;;;;34.60;4.80;;;;;;;;;;5018043;28;20025;-27
2021/12/28 10:22:58;;;;;;;28.83;3.92;;;;;;;;;;5034208;28;20055;-27
2021/12/28 10:25:29;;;;;;;33.80;3.80;;;;;;;;;;5034488;28;20468;-25
2021/12/28 10:27:58;;;;;;;29.63;4.38;;;;;;;;;;5034415;28;20445;-25
2021/12/28 10:30:26;;;;;;;38.38;4.32;;;;;;;;;;5033936;28;20096;-25
2021/12/28 10:32:56;;;;;;;34.95;4.30;;;;;;;;;;5033979;28;20021;-26
2021/12/28 10:35:27;;;;;;;26.50;2.88;;;;;;;;;;5033954;28;20033;-25
2021/12/28 10:37:55;;;;;;;21.58;3.65;;;;;;;;;;5033870;28;20483;-26
2021/12/28 10:40:33;;;;;;;29.08;5.15;;;;;;;;;;5033852;28;20338;-27
2021/12/28 10:43:04;;;;;;;33.70;3.90;;;;;;;;;;5033782;28;20038;-26
2021/12/28 10:45:41;;;;;;;45.00;5.75;;;;;;;;;;5035674;28;20116;-26
2021/12/28 10:48:09;;;;;;;28.95;3.90;;;;;;;;;;5037302;28;20109;-27
2021/12/28 10:50:38;;;;;;;40.28;5.70;;;;;;;;;;5037585;28;20025;-27
2021/12/28 10:53:10;;;;;;;39.38;5.05;;;;;;;;;;5037418;28;20460;-27
2021/12/28 10:55:41;;;;;;;32.80;3.60;;;;;;;;;;5037590;28;20029;-27
2021/12/28 10:58:07;;;;;;;37.20;4.28;;;;;;;;;;5037567;28;20060;-27
2021/12/28 11:00:38;;;;;;;28.05;4.75;;;;;;;;;;5037461;28;20025;-27
2021/12/28 11:03:17;;;;;;;27.33;3.97;;;;;;;;;;5037152;28;20473;-27
2021/12/28 11:05:47;;;;;;;21.23;3.00;;;;;;;;;;5037645;28;20360;-27
2021/12/28 11:08:14;;;;;;;33.72;4.35;;;;;;;;;;5037497;28;20448;-27
2021/12/28 11:10:41;;;;;;;24.25;3.42;;;;;;;;;;5037383;28;20038;-27
2021/12/28 11:13:08;;;;;;;32.17;4.40;;;;;;;;;;5037473;28;20017;-25
2021/12/28 11:15:37;;;;;;;20.88;4.05;;;;;;;;;;5037414;28;20025;-26
2021/12/28 11:18:22;;;;;;;18.30;2.90;;;;;;;;;;5019671;28;20029;-25
2021/12/28 11:20:48;;;;;;;22.15;3.83;;;;;;;;;;5037124;28;20025;-26
2021/12/28 11:23:16;;;;;;;28.77;4.82;;;;;;;;;;5037042;28;20032;-26
2021/12/28 11:25:43;;;;;;;33.28;4.13;;;;;;;;;;5037076;28;20333;-26
2021/12/28 11:28:15;;;;;;;33.95;4.40;;;;;;;;;;5037141;28;20411;-26
2021/12/28 11:30:57;;;;;;;35.30;4.32;;;;;;;;;;5019604;28;20562;-26
2021/12/28 11:33:23;;;;;;;29.52;5.43;;;;;;;;;;5036798;28;20025;-26
2021/12/28 11:35:50;;;;;;;39.15;3.75;;;;;;;;;;5037336;28;20437;-26
2021/12/28 11:38:17;;;;;;;15.80;3.35;;;;;;;;;;5036828;28;20030;-26
2021/12/28 11:40:43;;;;;;;32.58;5.38;;;;;;;;;;5036662;28;20037;-26
2021/12/28 11:43:10;;;;;;;27.75;2.85;;;;;;;;;;5019245;28;20478;-26
2021/12/28 11:45:36;;;;;;;18.45;3.55;;;;;;;;;;5019238;28;20061;-26
2021/12/28 11:48:03;;;;;;;20.38;3.13;;;;;;;;;;5036484;28;20025;-26
2021/12/28 11:50:29;;;;;;;25.50;3.53;;;;;;;;;;5036693;28;20082;-26
2021/12/28 11:52:55;;;;;;;28.77;4.80;;;;;;;;;;5036624;28;20407;-26
2021/12/28 11:55:21;;;;;;;27.05;4.88;;;;;;;;;;5036708;28;20522;-26
2021/12/28 11:57:52;;;;;;;19.67;4.40;;;;;;;;;;5036461;28;20032;-26
2021/12/28 12:00:20;;;;;;;35.05;4.90;;;;;;;;;;5036800;28;20056;-26
2021/12/28 12:02:49;;;;;;;35.13;3.60;;;;;;;;;;5036011;28;20049;-26
2021/12/28 12:05:17;;;;;;;28.48;4.35;;;;;;;;;;5036688;28;20059;-27
2021/12/28 12:07:44;;;;;;;17.70;3.25;;;;;;;;;;5036529;28;20096;-27
2021/12/28 12:10:15;;;;;;;30.95;3.22;;;;;;;;;;5036235;28;20021;-27
2021/12/28 12:12:44;;;;;;;69.05;6.05;;;;;;;;;;5037033;28;20025;-27
2021/12/28 12:15:13;;;;;;;37.67;5.05;;;;;;;;;;5036609;28;20053;-27
2021/12/28 12:17:41;;;;;;;23.90;3.03;;;;;;;;;;5036243;28;20448;-27
2021/12/28 12:20:09;;;;;;;26.63;4.15;;;;;;;;;;5036129;28;20108;-25
2021/12/28 12:22:39;;;;;;;42.83;4.50;;;;;;;;;;5035996;28;20025;-25
2021/12/28 12:25:07;;;;;;;38.90;3.83;;;;;;;;;;5036439;28;20445;-26
2021/12/28 12:27:50;;;;;;;22.05;3.38;;;;;;;;;;5035986;28;20091;-25
2021/12/28 12:30:28;;;;;;;28.15;4.88;;;;;;;;;;5035848;28;20037;-26
2021/12/28 12:32:57;;;;;;;41.75;4.38;;;;;;;;;;5035847;28;20037;-26
2021/12/28 12:35:31;;;;;;;34.92;3.88;;;;;;;;;;5035822;28;20053;-26
2021/12/28 12:37:58;;;;;;;30.77;4.40;;;;;;;;;;5036020;28;20358;-26
2021/12/28 12:40:45;;;;;;;38.50;4.45;;;;;;;;;;5018947;28;20092;-26
2021/12/28 12:43:15;;;;;;;30.42;3.83;;;;;;;;;;5001372;28;20026;-26
2021/12/28 12:46:07;;;;;;;23.08;3.65;;;;;;;;;;5017993;28;20018;-25
2021/12/28 12:48:37;;;;;;;21.15;3.25;;;;;;;;;;4998483;28;20038;-26
2021/12/28 12:51:21;;;;;;;37.30;6.35;;;;;;;;;;5035784;28;20399;-26
2021/12/28 12:54:02;;;;;;;41.28;6.38;;;;;;;;;;5035351;28;20374;-25
2021/12/28 12:56:37;;;;;;;22.13;3.75;;;;;;;;;;5035964;28;20029;-26
2021/12/28 12:59:05;;;;;;;37.13;5.75;;;;;;;;;;5035551;28;20034;-26
2021/12/28 13:01:40;;;;;;;33.67;4.53;;;;;;;;;;5035426;28;20033;-26
2021/12/28 13:04:28;;;;;;;36.10;4.13;;;;;;;;;;5034941;28;20045;-25
2021/12/28 13:07:01;;;;;;;29.73;4.25;;;;;;;;;;5017642;28;20068;-26
2021/12/28 13:09:28;;;;;;;31.00;3.88;;;;;;;;;;5034598;28;20460;-26
2021/12/28 13:11:54;;;;;;;32.08;4.78;;;;;;;;;;5035297;28;20028;-26
2021/12/28 13:14:21;;;;;;;40.05;6.93;;;;;;;;;;5034931;28;20075;-26
2021/12/28 13:16:57;;;;;;;36.97;3.92;;;;;;;;;;5018100;28;20127;-25
2021/12/28 13:19:23;;;;;;;33.13;5.35;;;;;;;;;;5034892;28;20029;-26
2021/12/28 13:22:00;;;;;;;38.33;4.97;;;;;;;;;;5035218;28;20029;-26
2021/12/28 13:24:28;;;;;;;37.88;4.95;;;;;;;;;;5017510;28;20044;-27
2021/12/28 13:26:59;;;;;;;35.75;4.40;;;;;;;;;;5035144;28;20333;-25
2021/12/28 13:29:29;;;;;;;33.55;6.45;;;;;;;;;;5034788;28;20460;-26
2021/12/28 13:32:12;;;;;;;36.28;4.00;;;;;;;;;;5035106;28;20021;-27
2021/12/28 13:34:56;;;;;;;28.00;4.00;;;;;;;;;;5034783;28;20527;-26
2021/12/28 13:37:33;;;;;;;28.75;4.20;;;;;;;;;;5034574;28;20036;-26
2021/12/28 13:40:11;;;;;;;39.00;4.88;;;;;;;;;;5034582;28;20041;-26
2021/12/28 13:42:38;;;;;;;22.98;4.35;;;;;;;;;;5034397;28;20061;-26
2021/12/28 13:45:05;;;;;;;28.67;5.65;;;;;;;;;;5034479;28;20445;-26
2021/12/28 13:47:31;;;;;;;32.72;5.18;;;;;;;;;;5034660;28;20037;-26
2021/12/28 13:50:12;;;;;;;22.33;4.07;;;;;;;;;;5034281;28;20040;-26
2021/12/28 13:52:39;;;;;;;38.72;5.18;;;;;;;;;;5017250;28;20402;-26
2021/12/28 13:55:06;;;;;;;33.45;4.20;;;;;;;;;;5034716;28;20032;-26
2021/12/28 13:57:33;;;;;;;53.22;5.60;;;;;;;;;;5034433;28;20056;-26
2021/12/28 13:59:59;;;;;;;43.45;4.38;;;;;;;;;;5034444;28;20057;-26
2021/12/28 14:02:25;;;;;;;37.15;4.45;;;;;;;;;;5034305;28;20032;-26
2021/12/28 14:04:52;;;;;;;51.13;6.35;;;;;;;;;;5034586;28;20079;-26
2021/12/28 14:07:18;;;;;;;45.95;5.05;;;;;;;;;;5035122;28;20433;-26
2021/12/28 14:09:44;;;;;;;55.85;6.03;;;;;;;;;;5034528;28;20087;-26
2021/12/28 14:12:11;;;;;;;45.80;8.10;;;;;;;;;;5034462;28;20356;-26
2021/12/28 14:14:38;;;;;;;57.28;6.45;;;;;;;;;;5034520;28;20105;-26
2021/12/28 14:17:14;;;;;;;50.00;5.75;;;;;;;;;;5034192;28;20452;-26
2021/12/28 14:19:52;;;;;;;53.20;5.38;;;;;;;;;;5035178;28;20041;-26
2021/12/28 14:22:20;;;;;;;32.92;5.15;;;;;;;;;;5038327;28;20472;-26
2021/12/28 14:24:51;;;;;;;46.10;5.53;;;;;;;;;;5021503;28;20124;-26
2021/12/28 14:27:36;;;;;;;48.60;5.30;;;;;;;;;;5038584;28;20028;-26
2021/12/28 14:30:05;;;;;;;47.42;6.18;;;;;;;;;;5038494;28;20029;-26
2021/12/28 14:32:36;;;;;;;29.45;4.68;;;;;;;;;;5038127;28;20066;-26
2021/12/28 14:35:03;;;;;;;44.70;6.97;;;;;;;;;;5038778;28;20036;-26
2021/12/28 14:37:33;;;;;;;29.23;5.35;;;;;;;;;;5038480;28;20305;-26